PWSweather.com
Personal Weather Stations
Station Observations
K4FB1
Clubhouse Heritage, Lakeland, FL 33812

Clubhouse HeritageLakeland, FL 33812

Lat: 27.969224, Lon: -81.897769

Elevation: 145

Station Type: Davis Vantage Pro2

http://www.ClubhouseWX.com

High Low Average
Temperature 66.3°F19.1°C 53.0°F11.7°C 58.8°F14.9°C
Dew Point 44.7°F7.1°C -45.6°F-43.1°C -32.4°F-35.8°C
Winds 7.0 mph 11.3 kmh Calm Calm 2.0 mph NE3.2 kmh NE
Wind Gusts 15.0 mph24.1 kmh 1.0 mph1.6 kmh 6.0 mph9.7 kmh
Humidity 66% 0% 4%
Pressure 30.16 in1021.3 mb 30.06 in1017.9 mb -
Precipitation 0.41 in10.4 mm - -
Hour Temp Dew Point Humidity Winds Wind Gusts Pressure Precip Precip Rate Daily Precip Total
12:00 AM 58.7°F14.8°C 48.9°F9.4°C 70% 3.0 mph N4.8 kmh N 7.0 mph11.3 kmh 30.14 in1020.7 mb 0.01 in0.3 mm 0.00 in0.0 mm 0.01 in0.3 mm
12:05 AM 58.5°F14.7°C 49.1°F9.5°C 71% 3.0 mph N4.8 kmh N 9.0 mph14.5 kmh 30.15 in1021.0 mb 0.01 in0.3 mm 0.00 in0.0 mm 0.01 in0.3 mm
12:10 AM 58.3°F14.6°C 48.9°F9.4°C 71% 4.0 mph N6.4 kmh N 9.0 mph14.5 kmh 30.15 in1021.0 mb 0.01 in0.3 mm 0.00 in0.0 mm 0.01 in0.3 mm
12:15 AM 58.0°F14.4°C 48.6°F9.2°C 71% 4.0 mph N6.4 kmh N 7.0 mph11.3 kmh 30.15 in1021.0 mb 0.01 in0.3 mm 0.00 in0.0 mm 0.01 in0.3 mm
12:20 AM 57.7°F14.3°C 48.7°F9.3°C 72% 3.0 mph N4.8 kmh N 7.0 mph11.3 kmh 30.15 in1021.0 mb 0.01 in0.3 mm 0.00 in0.0 mm 0.01 in0.3 mm
12:25 AM 57.5°F14.2°C 48.5°F9.2°C 72% 3.0 mph N4.8 kmh N 7.0 mph11.3 kmh 30.15 in1021.0 mb 0.01 in0.3 mm 0.00 in0.0 mm 0.01 in0.3 mm
12:30 AM 57.3°F14.1°C 48.3°F9.1°C 72% 3.0 mph N4.8 kmh N 9.0 mph14.5 kmh 30.15 in1021.0 mb 0.01 in0.3 mm 0.00 in0.0 mm 0.01 in0.3 mm
12:35 AM 57.1°F13.9°C 47.8°F8.8°C 71% 3.0 mph N4.8 kmh N 9.0 mph14.5 kmh 30.15 in1021.0 mb 0.01 in0.3 mm 0.00 in0.0 mm 0.01 in0.3 mm
12:40 AM 56.8°F13.8°C 47.5°F8.6°C 71% 3.0 mph N4.8 kmh N 7.0 mph11.3 kmh 30.15 in1021.0 mb 0.01 in0.3 mm 0.00 in0.0 mm 0.01 in0.3 mm
12:45 AM 56.6°F13.7°C 47.3°F8.5°C 71% 3.0 mph N4.8 kmh N 7.0 mph11.3 kmh 30.15 in1021.0 mb 0.02 in0.5 mm 0.12 in3.0 mm 0.01 in0.3 mm
12:50 AM 56.3°F13.5°C 46.3°F7.9°C 69% 3.0 mph N4.8 kmh N 6.0 mph9.7 kmh 30.15 in1021.0 mb 0.02 in0.5 mm 0.00 in0.0 mm 0.01 in0.3 mm
12:55 AM 56.1°F13.4°C 45.3°F7.4°C 67% 3.0 mph N4.8 kmh N 6.0 mph9.7 kmh 30.15 in1021.0 mb 0.02 in0.5 mm 0.00 in0.0 mm 0.01 in0.3 mm
01:00 AM 55.9°F13.3°C 44.7°F7.1°C 66% 2.0 mph N3.2 kmh N 4.0 mph6.4 kmh 30.16 in1021.3 mb 0.01 in0.3 mm 0.00 in0.0 mm 0.01 in0.3 mm
01:05 AM 55.7°F13.2°C 43.3°F6.3°C 63% 2.0 mph N3.2 kmh N 6.0 mph9.7 kmh 30.15 in1021.0 mb 0.02 in0.5 mm 0.12 in3.0 mm 0.02 in0.5 mm
01:10 AM 55.5°F13.1°C 42.3°F5.7°C 61% 2.0 mph N3.2 kmh N 6.0 mph9.7 kmh 30.15 in1021.0 mb 0.02 in0.5 mm 0.00 in0.0 mm 0.02 in0.5 mm
01:15 AM 55.3°F12.9°C 40.8°F4.9°C 58% 2.0 mph N3.2 kmh N 5.0 mph8.0 kmh 30.15 in1021.0 mb 0.03 in0.8 mm 0.12 in3.0 mm 0.03 in0.8 mm
01:20 AM 55.1°F12.8°C 39.7°F4.3°C 56% 2.0 mph N3.2 kmh N 3.0 mph4.8 kmh 30.15 in1021.0 mb 0.03 in0.8 mm 0.00 in0.0 mm 0.03 in0.8 mm
01:25 AM 54.9°F12.7°C 38.1°F3.4°C 53% 2.0 mph N3.2 kmh N 4.0 mph6.4 kmh 30.15 in1021.0 mb 0.04 in1.0 mm 0.12 in3.0 mm 0.04 in1.0 mm
01:30 AM 54.6°F12.6°C 35.8°F2.1°C 49% 1.0 mph NNE1.6 kmh NNE 4.0 mph6.4 kmh 30.15 in1021.0 mb 0.05 in1.3 mm 0.12 in3.0 mm 0.05 in1.3 mm
01:35 AM 54.3°F12.4°C 34.5°F1.4°C 47% 1.0 mph N1.6 kmh N 3.0 mph4.8 kmh 30.15 in1021.0 mb 0.05 in1.3 mm 0.00 in0.0 mm 0.05 in1.3 mm
01:40 AM 54.1°F12.3°C 33.2°F0.7°C 45% 1.0 mph N1.6 kmh N 3.0 mph4.8 kmh 30.15 in1021.0 mb 0.06 in1.5 mm 0.12 in3.0 mm 0.06 in1.5 mm
01:45 AM 53.9°F12.2°C 30.1°F-1.1°C 40% 1.0 mph N1.6 kmh N 3.0 mph4.8 kmh 30.15 in1021.0 mb 0.07 in1.8 mm 0.12 in3.0 mm 0.08 in2.0 mm
01:50 AM 53.8°F12.1°C 27.4°F-2.6°C 36% 1.0 mph N1.6 kmh N 2.0 mph3.2 kmh 30.15 in1021.0 mb 0.08 in2.0 mm 0.12 in3.0 mm 0.09 in2.3 mm
01:55 AM 53.7°F12.1°C 26.0°F-3.3°C 34% Calm Calm 2.0 mph3.2 kmh 30.15 in1021.0 mb 0.08 in2.0 mm 0.00 in0.0 mm 0.09 in2.3 mm
02:00 AM 53.6°F12.0°C 24.4°F-4.2°C 32% Calm Calm 2.0 mph3.2 kmh 30.15 in1021.0 mb 0.09 in2.3 mm 0.01 in0.3 mm 0.10 in2.5 mm
02:05 AM 53.5°F11.9°C 20.3°F-6.5°C 27% Calm Calm 1.0 mph1.6 kmh 30.15 in1021.0 mb 0.09 in2.3 mm 0.00 in0.0 mm 0.11 in2.8 mm
02:10 AM 53.5°F11.9°C 18.5°F-7.5°C 25% Calm Calm 1.0 mph1.6 kmh 30.14 in1020.7 mb 0.09 in2.3 mm 0.00 in0.0 mm 0.12 in3.0 mm
02:15 AM 53.4°F11.9°C 15.4°F-9.2°C 22% Calm Calm 1.0 mph1.6 kmh 30.14 in1020.7 mb 0.10 in2.5 mm 0.12 in3.0 mm 0.13 in3.3 mm
02:20 AM 53.4°F11.9°C 9.6°F-12.4°C 17% Calm Calm 2.0 mph3.2 kmh 30.14 in1020.7 mb 0.11 in2.8 mm 0.12 in3.0 mm 0.14 in3.6 mm
02:25 AM 53.3°F11.8°C 6.7°F-14.1°C 15% 1.0 mph NNE1.6 kmh NNE 3.0 mph4.8 kmh 30.14 in1020.7 mb 0.11 in2.8 mm 0.00 in0.0 mm 0.15 in3.8 mm
02:30 AM 53.2°F11.8°C 3.5°F-15.8°C 13% 1.0 mph NNE1.6 kmh NNE 3.0 mph4.8 kmh 30.13 in1020.3 mb 0.11 in2.8 mm 0.00 in0.0 mm 0.16 in4.1 mm
02:35 AM 53.2°F11.8°C -0.1°F-17.8°C 11% 1.0 mph NNE1.6 kmh NNE 3.0 mph4.8 kmh 30.13 in1020.3 mb 0.12 in3.0 mm 0.12 in3.0 mm 0.17 in4.3 mm
02:40 AM 53.2°F11.8°C -4.3°F-20.2°C 9% 1.0 mph NNE1.6 kmh NNE 3.0 mph4.8 kmh 30.13 in1020.3 mb 0.11 in2.8 mm 0.00 in0.0 mm 0.17 in4.3 mm
02:45 AM 53.2°F11.8°C -9.5°F-23.1°C 7% 1.0 mph NNE1.6 kmh NNE 3.0 mph4.8 kmh 30.12 in1020.0 mb 0.10 in2.5 mm 0.00 in0.0 mm 0.18 in4.6 mm
02:50 AM 53.2°F11.8°C -20.6°F-29.2°C 4% 1.0 mph NNE1.6 kmh NNE 3.0 mph4.8 kmh 30.12 in1020.0 mb 0.10 in2.5 mm 0.00 in0.0 mm 0.19 in4.8 mm
02:55 AM 53.3°F11.8°C -45.4°F-43.0°C 0% 1.0 mph NNE1.6 kmh NNE 3.0 mph4.8 kmh 30.11 in1019.6 mb 0.09 in2.3 mm 0.00 in0.0 mm 0.19 in4.8 mm
03:00 AM 53.3°F11.8°C -45.4°F-43.0°C 0% 1.0 mph NNE1.6 kmh NNE 3.0 mph4.8 kmh 30.11 in1019.6 mb 0.08 in2.0 mm 0.00 in0.0 mm 0.19 in4.8 mm
03:05 AM 53.3°F11.8°C -45.4°F-43.0°C 0% 1.0 mph NNE1.6 kmh NNE 2.0 mph3.2 kmh 30.11 in1019.6 mb 0.09 in2.3 mm 0.12 in3.0 mm 0.20 in5.1 mm
03:10 AM 53.3°F11.8°C -45.4°F-43.0°C 0% 1.0 mph NNE1.6 kmh NNE 4.0 mph6.4 kmh 30.10 in1019.3 mb 0.07 in1.8 mm 0.00 in0.0 mm 0.20 in5.1 mm
03:15 AM 53.3°F11.8°C -45.4°F-43.0°C 0% 2.0 mph NE3.2 kmh NE 4.0 mph6.4 kmh 30.10 in1019.3 mb 0.07 in1.8 mm 0.00 in0.0 mm 0.20 in5.1 mm
03:20 AM 53.3°F11.8°C -45.4°F-43.0°C 0% 2.0 mph NE3.2 kmh NE 6.0 mph9.7 kmh 30.09 in1019.0 mb 0.07 in1.8 mm 0.00 in0.0 mm 0.21 in5.3 mm
03:25 AM 53.2°F11.8°C -45.4°F-43.0°C 0% 2.0 mph NE3.2 kmh NE 6.0 mph9.7 kmh 30.09 in1019.0 mb 0.06 in1.5 mm 0.00 in0.0 mm 0.21 in5.3 mm
03:30 AM 53.2°F11.8°C -45.4°F-43.0°C 0% 2.0 mph NE3.2 kmh NE 7.0 mph11.3 kmh 30.08 in1018.6 mb 0.05 in1.3 mm 0.00 in0.0 mm 0.21 in5.3 mm
03:35 AM 53.2°F11.8°C -45.4°F-43.0°C 0% 2.0 mph NE3.2 kmh NE 7.0 mph11.3 kmh 30.08 in1018.6 mb 0.04 in1.0 mm 0.00 in0.0 mm 0.21 in5.3 mm
03:40 AM 53.2°F11.8°C -26.0°F-32.2°C 3% 3.0 mph NE4.8 kmh NE 5.0 mph8.0 kmh 30.08 in1018.6 mb 0.05 in1.3 mm 0.12 in3.0 mm 0.22 in5.6 mm
03:45 AM 53.2°F11.8°C -20.6°F-29.2°C 4% 2.0 mph NE3.2 kmh NE 5.0 mph8.0 kmh 30.08 in1018.6 mb 0.04 in1.0 mm 0.00 in0.0 mm 0.22 in5.6 mm
03:50 AM 53.2°F11.8°C -20.6°F-29.2°C 4% 1.0 mph NE1.6 kmh NE 4.0 mph6.4 kmh 30.08 in1018.6 mb 0.04 in1.0 mm 0.00 in0.0 mm 0.23 in5.8 mm
03:55 AM 53.1°F11.7°C -26.1°F-32.3°C 3% 1.0 mph NE1.6 kmh NE 4.0 mph6.4 kmh 30.08 in1018.6 mb 0.04 in1.0 mm 0.00 in0.0 mm 0.23 in5.8 mm
04:00 AM 53.1°F11.7°C -26.1°F-32.3°C 3% 1.0 mph ENE1.6 kmh ENE 3.0 mph4.8 kmh 30.08 in1018.6 mb 0.04 in1.0 mm 0.00 in0.0 mm 0.23 in5.8 mm
04:05 AM 53.0°F11.7°C -33.6°F-36.4°C 2% 1.0 mph ENE1.6 kmh ENE 3.0 mph4.8 kmh 30.08 in1018.6 mb 0.04 in1.0 mm 0.00 in0.0 mm 0.24 in6.1 mm
04:10 AM 53.0°F11.7°C -45.6°F-43.1°C 1% 1.0 mph ENE1.6 kmh ENE 3.0 mph4.8 kmh 30.08 in1018.6 mb 0.05 in1.3 mm 0.12 in3.0 mm 0.25 in6.4 mm
04:15 AM 53.0°F11.7°C -45.6°F-43.1°C 0% 1.0 mph ENE1.6 kmh ENE 3.0 mph4.8 kmh 30.08 in1018.6 mb 0.05 in1.3 mm 0.00 in0.0 mm 0.25 in6.4 mm
04:20 AM 53.0°F11.7°C -45.6°F-43.1°C 0% 1.0 mph ENE1.6 kmh ENE 3.0 mph4.8 kmh 30.08 in1018.6 mb 0.04 in1.0 mm 0.00 in0.0 mm 0.25 in6.4 mm
04:25 AM 53.0°F11.7°C -45.6°F-43.1°C 0% 1.0 mph ENE1.6 kmh ENE 3.0 mph4.8 kmh 30.08 in1018.6 mb 0.04 in1.0 mm 0.00 in0.0 mm 0.25 in6.4 mm
04:30 AM 53.1°F11.7°C -45.6°F-43.1°C 0% 1.0 mph ENE1.6 kmh ENE 3.0 mph4.8 kmh 30.08 in1018.6 mb 0.05 in1.3 mm 0.12 in3.0 mm 0.26 in6.6 mm
04:35 AM 53.2°F11.8°C -45.6°F-43.1°C 0% Calm Calm 3.0 mph4.8 kmh 30.08 in1018.6 mb 0.05 in1.3 mm 0.00 in0.0 mm 0.26 in6.6 mm
04:40 AM 53.2°F11.8°C -45.6°F-43.1°C 0% Calm Calm 1.0 mph1.6 kmh 30.08 in1018.6 mb 0.04 in1.0 mm 0.00 in0.0 mm 0.26 in6.6 mm
04:45 AM 53.2°F11.8°C -45.6°F-43.1°C 0% Calm Calm 1.0 mph1.6 kmh 30.07 in1018.3 mb 0.04 in1.0 mm 0.00 in0.0 mm 0.26 in6.6 mm
04:50 AM 53.3°F11.8°C -45.6°F-43.1°C 0% Calm Calm 1.0 mph1.6 kmh 30.07 in1018.3 mb 0.04 in1.0 mm 0.00 in0.0 mm 0.27 in6.9 mm
04:55 AM 53.3°F11.8°C -45.6°F-43.1°C 0% Calm Calm 2.0 mph3.2 kmh 30.07 in1018.3 mb 0.04 in1.0 mm 0.00 in0.0 mm 0.27 in6.9 mm
05:00 AM 53.4°F11.9°C -45.6°F-43.1°C 0% Calm Calm 2.0 mph3.2 kmh 30.08 in1018.6 mb 0.04 in1.0 mm 0.00 in0.0 mm 0.27 in6.9 mm
05:05 AM 53.6°F12.0°C -45.6°F-43.1°C 0% Calm Calm 2.0 mph3.2 kmh 30.08 in1018.6 mb 0.03 in0.8 mm 0.00 in0.0 mm 0.27 in6.9 mm
05:10 AM 53.7°F12.1°C -45.6°F-43.1°C 0% 1.0 mph ENE1.6 kmh ENE 2.0 mph3.2 kmh 30.08 in1018.6 mb 0.03 in0.8 mm 0.00 in0.0 mm 0.28 in7.1 mm
05:15 AM 53.7°F12.1°C -45.6°F-43.1°C 0% 1.0 mph ENE1.6 kmh ENE 2.0 mph3.2 kmh 30.08 in1018.6 mb 0.03 in0.8 mm 0.00 in0.0 mm 0.28 in7.1 mm
05:20 AM 54.0°F12.2°C -45.6°F-43.1°C 0% 1.0 mph ENE1.6 kmh ENE 3.0 mph4.8 kmh 30.08 in1018.6 mb 0.03 in0.8 mm 0.00 in0.0 mm 0.28 in7.1 mm
05:25 AM 54.0°F12.2°C -45.6°F-43.1°C 0% 1.0 mph ENE1.6 kmh ENE 3.0 mph4.8 kmh 30.08 in1018.6 mb 0.03 in0.8 mm 0.00 in0.0 mm 0.28 in7.1 mm
05:30 AM 54.1°F12.3°C -45.6°F-43.1°C 0% 1.0 mph ENE1.6 kmh ENE 2.0 mph3.2 kmh 30.08 in1018.6 mb 0.02 in0.5 mm 0.00 in0.0 mm 0.28 in7.1 mm
05:35 AM 54.2°F12.3°C -45.6°F-43.1°C 0% 1.0 mph ENE1.6 kmh ENE 2.0 mph3.2 kmh 30.08 in1018.6 mb 0.02 in0.5 mm 0.00 in0.0 mm 0.28 in7.1 mm
05:40 AM 54.2°F12.3°C -45.6°F-43.1°C 0% 1.0 mph ENE1.6 kmh ENE 3.0 mph4.8 kmh 30.08 in1018.6 mb 0.03 in0.8 mm 0.12 in3.0 mm 0.29 in7.4 mm
05:45 AM 54.4°F12.4°C -45.6°F-43.1°C 0% 1.0 mph ENE1.6 kmh ENE 3.0 mph4.8 kmh 30.08 in1018.6 mb 0.02 in0.5 mm 0.00 in0.0 mm 0.29 in7.4 mm
05:50 AM 54.5°F12.5°C -45.6°F-43.1°C 0% Calm Calm 2.0 mph3.2 kmh 30.08 in1018.6 mb 0.02 in0.5 mm 0.00 in0.0 mm 0.29 in7.4 mm
05:55 AM 54.5°F12.5°C -45.6°F-43.1°C 0% 1.0 mph ENE1.6 kmh ENE 3.0 mph4.8 kmh 30.09 in1019.0 mb 0.02 in0.5 mm 0.00 in0.0 mm 0.29 in7.4 mm
06:00 AM 54.5°F12.5°C -45.6°F-43.1°C 0% 1.0 mph ENE1.6 kmh ENE 3.0 mph4.8 kmh 30.08 in1018.6 mb 0.02 in0.5 mm 0.00 in0.0 mm 0.29 in7.4 mm
06:05 AM 54.6°F12.6°C -45.6°F-43.1°C 0% Calm Calm 2.0 mph3.2 kmh 30.08 in1018.6 mb 0.02 in0.5 mm 0.00 in0.0 mm 0.29 in7.4 mm
06:10 AM 54.6°F12.6°C -45.6°F-43.1°C 0% Calm Calm 1.0 mph1.6 kmh 30.08 in1018.6 mb 0.01 in0.3 mm 0.00 in0.0 mm 0.29 in7.4 mm
06:15 AM 54.6°F12.6°C -45.6°F-43.1°C 0% Calm Calm 2.0 mph3.2 kmh 30.08 in1018.6 mb 0.01 in0.3 mm 0.00 in0.0 mm 0.29 in7.4 mm
06:20 AM 54.7°F12.6°C -45.6°F-43.1°C 0% 1.0 mph ENE1.6 kmh ENE 4.0 mph6.4 kmh 30.07 in1018.3 mb 0.01 in0.3 mm 0.00 in0.0 mm 0.29 in7.4 mm
06:25 AM 54.6°F12.6°C -45.6°F-43.1°C 0% 1.0 mph ENE1.6 kmh ENE 4.0 mph6.4 kmh 30.07 in1018.3 mb 0.01 in0.3 mm 0.00 in0.0 mm 0.29 in7.4 mm
06:30 AM 54.7°F12.6°C -45.6°F-43.1°C 0% 1.0 mph ENE1.6 kmh ENE 3.0 mph4.8 kmh 30.08 in1018.6 mb 0.01 in0.3 mm 0.00 in0.0 mm 0.29 in7.4 mm
06:35 AM 54.7°F12.6°C -45.6°F-43.1°C 0% 1.0 mph ENE1.6 kmh ENE 3.0 mph4.8 kmh 30.08 in1018.6 mb 0.01 in0.3 mm 0.00 in0.0 mm 0.29 in7.4 mm
06:40 AM 54.8°F12.7°C -45.6°F-43.1°C 0% 1.0 mph ENE1.6 kmh ENE 3.0 mph4.8 kmh 30.09 in1019.0 mb 0.00 in0.0 mm 0.00 in0.0 mm 0.29 in7.4 mm
06:45 AM 54.8°F12.7°C -45.6°F-43.1°C 0% 1.0 mph ENE1.6 kmh ENE 2.0 mph3.2 kmh 30.09 in1019.0 mb 0.00 in0.0 mm 0.00 in0.0 mm 0.29 in7.4 mm
06:50 AM 54.8°F12.7°C -45.6°F-43.1°C 0% 1.0 mph NE1.6 kmh NE 3.0 mph4.8 kmh 30.09 in1019.0 mb 0.00 in0.0 mm 0.00 in0.0 mm 0.29 in7.4 mm
06:55 AM 54.9°F12.7°C -45.6°F-43.1°C 0% 1.0 mph ENE1.6 kmh ENE 3.0 mph4.8 kmh 30.09 in1019.0 mb 0.00 in0.0 mm 0.00 in0.0 mm 0.29 in7.4 mm
07:00 AM 55.0°F12.8°C -45.6°F-43.1°C 0% 1.0 mph ENE1.6 kmh ENE 2.0 mph3.2 kmh 30.10 in1019.3 mb 0.00 in0.0 mm 0.00 in0.0 mm 0.29 in7.4 mm
07:05 AM 55.0°F12.8°C -45.6°F-43.1°C 0% 1.0 mph ENE1.6 kmh ENE 3.0 mph4.8 kmh 30.10 in1019.3 mb 0.00 in0.0 mm 0.00 in0.0 mm 0.29 in7.4 mm
07:10 AM 55.0°F12.8°C -45.6°F-43.1°C 0% 1.0 mph ENE1.6 kmh ENE 3.0 mph4.8 kmh 30.11 in1019.6 mb 0.00 in0.0 mm 0.00 in0.0 mm 0.29 in7.4 mm
07:15 AM 55.1°F12.8°C -45.6°F-43.1°C 0% 1.0 mph ENE1.6 kmh ENE 3.0 mph4.8 kmh 30.11 in1019.6 mb 0.00 in0.0 mm 0.00 in0.0 mm 0.29 in7.4 mm
07:20 AM 55.2°F12.9°C -45.6°F-43.1°C 0% 1.0 mph NE1.6 kmh NE 3.0 mph4.8 kmh 30.11 in1019.6 mb 0.02 in0.5 mm 0.24 in6.1 mm 0.31 in7.9 mm
07:25 AM 55.3°F12.9°C -45.6°F-43.1°C 0% 1.0 mph NE1.6 kmh NE 3.0 mph4.8 kmh 30.10 in1019.3 mb 0.02 in0.5 mm 0.00 in0.0 mm 0.31 in7.9 mm
07:30 AM 55.3°F12.9°C -45.6°F-43.1°C 0% 1.0 mph NE1.6 kmh NE 2.0 mph3.2 kmh 30.10 in1019.3 mb 0.02 in0.5 mm 0.00 in0.0 mm 0.31 in7.9 mm
07:35 AM 55.3°F12.9°C -45.6°F-43.1°C 0% 1.0 mph ENE1.6 kmh ENE 2.0 mph3.2 kmh 30.10 in1019.3 mb 0.03 in0.8 mm 0.12 in3.0 mm 0.32 in8.1 mm
07:40 AM 55.2°F12.9°C -45.6°F-43.1°C 0% 1.0 mph ENE1.6 kmh ENE 3.0 mph4.8 kmh 30.10 in1019.3 mb 0.03 in0.8 mm 0.00 in0.0 mm 0.32 in8.1 mm
07:45 AM 55.1°F12.8°C -45.6°F-43.1°C 0% 2.0 mph NE3.2 kmh NE 6.0 mph9.7 kmh 30.10 in1019.3 mb 0.04 in1.0 mm 0.12 in3.0 mm 0.33 in8.4 mm
07:50 AM 55.0°F12.8°C -45.6°F-43.1°C 0% 2.0 mph NE3.2 kmh NE 6.0 mph9.7 kmh 30.10 in1019.3 mb 0.04 in1.0 mm 0.00 in0.0 mm 0.33 in8.4 mm
07:55 AM 55.1°F12.8°C -45.6°F-43.1°C 0% 2.0 mph NE3.2 kmh NE 4.0 mph6.4 kmh 30.10 in1019.3 mb 0.04 in1.0 mm 0.00 in0.0 mm 0.33 in8.4 mm
08:00 AM 55.1°F12.8°C -45.6°F-43.1°C 0% 1.0 mph NE1.6 kmh NE 4.0 mph6.4 kmh 30.11 in1019.6 mb 0.04 in1.0 mm 0.00 in0.0 mm 0.33 in8.4 mm
08:05 AM 55.0°F12.8°C -45.6°F-43.1°C 0% 2.0 mph NE3.2 kmh NE 4.0 mph6.4 kmh 30.11 in1019.6 mb 0.05 in1.3 mm 0.12 in3.0 mm 0.34 in8.6 mm
08:10 AM 55.0°F12.8°C -45.6°F-43.1°C 0% 1.0 mph NE1.6 kmh NE 4.0 mph6.4 kmh 30.11 in1019.6 mb 0.05 in1.3 mm 0.00 in0.0 mm 0.34 in8.6 mm
08:15 AM 55.1°F12.8°C -45.6°F-43.1°C 0% 1.0 mph NE1.6 kmh NE 3.0 mph4.8 kmh 30.11 in1019.6 mb 0.05 in1.3 mm 0.00 in0.0 mm 0.34 in8.6 mm
08:20 AM 55.1°F12.8°C -45.6°F-43.1°C 0% 1.0 mph NE1.6 kmh NE 3.0 mph4.8 kmh 30.11 in1019.6 mb 0.03 in0.8 mm 0.00 in0.0 mm 0.34 in8.6 mm
08:25 AM 55.0°F12.8°C -45.6°F-43.1°C 0% 1.0 mph NE1.6 kmh NE 3.0 mph4.8 kmh 30.12 in1020.0 mb 0.03 in0.8 mm 0.00 in0.0 mm 0.34 in8.6 mm
08:30 AM 55.1°F12.8°C -45.6°F-43.1°C 0% 1.0 mph NE1.6 kmh NE 2.0 mph3.2 kmh 30.11 in1019.6 mb 0.03 in0.8 mm 0.00 in0.0 mm 0.34 in8.6 mm
08:35 AM 55.0°F12.8°C -45.6°F-43.1°C 0% 1.0 mph NE1.6 kmh NE 3.0 mph4.8 kmh 30.11 in1019.6 mb 0.02 in0.5 mm 0.00 in0.0 mm 0.34 in8.6 mm
08:40 AM 55.1°F12.8°C -45.6°F-43.1°C 0% 1.0 mph NE1.6 kmh NE 3.0 mph4.8 kmh 30.12 in1020.0 mb 0.03 in0.8 mm 0.12 in3.0 mm 0.35 in8.9 mm
08:45 AM 55.1°F12.8°C -45.6°F-43.1°C 0% 2.0 mph NE3.2 kmh NE 3.0 mph4.8 kmh 30.12 in1020.0 mb 0.02 in0.5 mm 0.00 in0.0 mm 0.35 in8.9 mm
08:50 AM 55.0°F12.8°C -45.6°F-43.1°C 0% 1.0 mph NE1.6 kmh NE 3.0 mph4.8 kmh 30.12 in1020.0 mb 0.02 in0.5 mm 0.00 in0.0 mm 0.35 in8.9 mm
08:55 AM 55.1°F12.8°C -45.6°F-43.1°C 0% 1.0 mph NE1.6 kmh NE 3.0 mph4.8 kmh 30.12 in1020.0 mb 0.02 in0.5 mm 0.00 in0.0 mm 0.35 in8.9 mm
09:00 AM 55.1°F12.8°C -45.6°F-43.1°C 0% 1.0 mph NE1.6 kmh NE 2.0 mph3.2 kmh 30.13 in1020.3 mb 0.02 in0.5 mm 0.00 in0.0 mm 0.35 in8.9 mm
09:05 AM 55.1°F12.8°C -45.6°F-43.1°C 0% Calm Calm 2.0 mph3.2 kmh 30.13 in1020.3 mb 0.01 in0.3 mm 0.00 in0.0 mm 0.35 in8.9 mm
09:10 AM 55.2°F12.9°C -45.6°F-43.1°C 0% Calm Calm 2.0 mph3.2 kmh 30.14 in1020.7 mb 0.02 in0.5 mm 0.12 in3.0 mm 0.36 in9.1 mm
09:15 AM 55.3°F12.9°C -45.6°F-43.1°C 0% Calm Calm 2.0 mph3.2 kmh 30.14 in1020.7 mb 0.02 in0.5 mm 0.00 in0.0 mm 0.36 in9.1 mm
09:20 AM 55.3°F12.9°C -45.6°F-43.1°C 0% 1.0 mph NE1.6 kmh NE 4.0 mph6.4 kmh 30.15 in1021.0 mb 0.02 in0.5 mm 0.00 in0.0 mm 0.36 in9.1 mm
09:25 AM 55.3°F12.9°C -45.6°F-43.1°C 0% 1.0 mph NE1.6 kmh NE 4.0 mph6.4 kmh 30.14 in1020.7 mb 0.02 in0.5 mm 0.00 in0.0 mm 0.36 in9.1 mm
09:30 AM 55.4°F13.0°C -45.6°F-43.1°C 0% 1.0 mph NE1.6 kmh NE 3.0 mph4.8 kmh 30.14 in1020.7 mb 0.03 in0.8 mm 0.12 in3.0 mm 0.37 in9.4 mm
09:35 AM 55.4°F13.0°C -45.6°F-43.1°C 0% 1.0 mph NE1.6 kmh NE 3.0 mph4.8 kmh 30.14 in1020.7 mb 0.03 in0.8 mm 0.00 in0.0 mm 0.37 in9.4 mm
09:40 AM 55.4°F13.0°C -45.6°F-43.1°C 0% 1.0 mph NE1.6 kmh NE 4.0 mph6.4 kmh 30.14 in1020.7 mb 0.02 in0.5 mm 0.00 in0.0 mm 0.37 in9.4 mm
09:45 AM 55.3°F12.9°C -45.6°F-43.1°C 0% 2.0 mph NE3.2 kmh NE 4.0 mph6.4 kmh 30.14 in1020.7 mb 0.02 in0.5 mm 0.00 in0.0 mm 0.37 in9.4 mm
09:50 AM 55.3°F12.9°C -45.6°F-43.1°C 0% 2.0 mph NE3.2 kmh NE 4.0 mph6.4 kmh 30.13 in1020.3 mb 0.03 in0.8 mm 0.12 in3.0 mm 0.38 in9.7 mm
09:55 AM 55.3°F12.9°C -45.6°F-43.1°C 0% 2.0 mph NE3.2 kmh NE 7.0 mph11.3 kmh 30.13 in1020.3 mb 0.03 in0.8 mm 0.00 in0.0 mm 0.38 in9.7 mm
10:00 AM 55.3°F12.9°C -45.6°F-43.1°C 0% 2.0 mph NE3.2 kmh NE 7.0 mph11.3 kmh 30.13 in1020.3 mb 0.03 in0.8 mm 0.00 in0.0 mm 0.38 in9.7 mm
10:05 AM 55.3°F12.9°C -45.6°F-43.1°C 0% 2.0 mph NE3.2 kmh NE 5.0 mph8.0 kmh 30.13 in1020.3 mb 0.04 in1.0 mm 0.12 in3.0 mm 0.39 in9.9 mm
10:10 AM 55.4°F13.0°C -45.6°F-43.1°C 0% 2.0 mph NE3.2 kmh NE 5.0 mph8.0 kmh 30.13 in1020.3 mb 0.03 in0.8 mm 0.00 in0.0 mm 0.39 in9.9 mm
10:15 AM 55.5°F13.1°C -45.6°F-43.1°C 0% 2.0 mph NE3.2 kmh NE 4.0 mph6.4 kmh 30.13 in1020.3 mb 0.03 in0.8 mm 0.00 in0.0 mm 0.39 in9.9 mm
10:20 AM 55.6°F13.1°C -45.6°F-43.1°C 0% 1.0 mph NE1.6 kmh NE 5.0 mph8.0 kmh 30.13 in1020.3 mb 0.03 in0.8 mm 0.00 in0.0 mm 0.39 in9.9 mm
10:25 AM 55.8°F13.2°C -45.6°F-43.1°C 0% 2.0 mph NE3.2 kmh NE 5.0 mph8.0 kmh 30.13 in1020.3 mb 0.03 in0.8 mm 0.00 in0.0 mm 0.39 in9.9 mm
10:30 AM 55.9°F13.3°C -45.6°F-43.1°C 0% 2.0 mph NE3.2 kmh NE 4.0 mph6.4 kmh 30.13 in1020.3 mb 0.03 in0.8 mm 0.00 in0.0 mm 0.40 in10.2 mm
10:35 AM 56.0°F13.3°C -45.6°F-43.1°C 0% 2.0 mph NE3.2 kmh NE 5.0 mph8.0 kmh 30.14 in1020.7 mb 0.03 in0.8 mm 0.00 in0.0 mm 0.40 in10.2 mm
10:40 AM 56.1°F13.4°C -45.6°F-43.1°C 0% 2.0 mph NE3.2 kmh NE 5.0 mph8.0 kmh 30.14 in1020.7 mb 0.03 in0.8 mm 0.00 in0.0 mm 0.40 in10.2 mm
10:45 AM 56.2°F13.4°C -45.6°F-43.1°C 0% 2.0 mph NE3.2 kmh NE 5.0 mph8.0 kmh 30.14 in1020.7 mb 0.03 in0.8 mm 0.00 in0.0 mm 0.40 in10.2 mm
10:50 AM 56.4°F13.6°C -45.6°F-43.1°C 0% 2.0 mph NE3.2 kmh NE 4.0 mph6.4 kmh 30.13 in1020.3 mb 0.02 in0.5 mm 0.00 in0.0 mm 0.40 in10.2 mm
10:55 AM 56.5°F13.6°C -45.6°F-43.1°C 0% 2.0 mph NE3.2 kmh NE 4.0 mph6.4 kmh 30.12 in1020.0 mb 0.02 in0.5 mm 0.00 in0.0 mm 0.40 in10.2 mm
11:00 AM 56.6°F13.7°C -45.6°F-43.1°C 0% 2.0 mph NE3.2 kmh NE 5.0 mph8.0 kmh 30.13 in1020.3 mb 0.02 in0.5 mm 0.00 in0.0 mm 0.40 in10.2 mm
11:05 AM 56.9°F13.8°C -45.6°F-43.1°C 0% 2.0 mph NE3.2 kmh NE 7.0 mph11.3 kmh 30.12 in1020.0 mb 0.01 in0.3 mm 0.00 in0.0 mm 0.40 in10.2 mm
11:10 AM 57.2°F14.0°C -45.6°F-43.1°C 0% 2.0 mph NE3.2 kmh NE 7.0 mph11.3 kmh 30.12 in1020.0 mb 0.02 in0.5 mm 0.12 in3.0 mm 0.41 in10.4 mm
11:15 AM 57.5°F14.2°C -45.6°F-43.1°C 0% 3.0 mph NE4.8 kmh NE 6.0 mph9.7 kmh 30.13 in1020.3 mb 0.02 in0.5 mm 0.00 in0.0 mm 0.41 in10.4 mm
11:20 AM 57.7°F14.3°C -45.6°F-43.1°C 0% 3.0 mph NE4.8 kmh NE 7.0 mph11.3 kmh 30.13 in1020.3 mb 0.02 in0.5 mm 0.00 in0.0 mm 0.41 in10.4 mm
11:25 AM 57.9°F14.4°C -45.6°F-43.1°C 0% 3.0 mph NNE4.8 kmh NNE 7.0 mph11.3 kmh 30.13 in1020.3 mb 0.02 in0.5 mm 0.00 in0.0 mm 0.41 in10.4 mm
11:30 AM 58.1°F14.5°C -45.6°F-43.1°C 0% 3.0 mph N4.8 kmh N 6.0 mph9.7 kmh 30.13 in1020.3 mb 0.01 in0.3 mm 0.00 in0.0 mm 0.41 in10.4 mm
11:35 AM 58.1°F14.5°C -45.6°F-43.1°C 0% 3.0 mph NNE4.8 kmh NNE 8.0 mph12.9 kmh 30.13 in1020.3 mb 0.01 in0.3 mm 0.00 in0.0 mm 0.41 in10.4 mm
11:40 AM 58.1°F14.5°C -45.6°F-43.1°C 0% 3.0 mph NE4.8 kmh NE 8.0 mph12.9 kmh 30.13 in1020.3 mb 0.01 in0.3 mm 0.00 in0.0 mm 0.41 in10.4 mm
11:45 AM 58.3°F14.6°C -45.6°F-43.1°C 0% 3.0 mph NE4.8 kmh NE 7.0 mph11.3 kmh 30.13 in1020.3 mb 0.01 in0.3 mm 0.00 in0.0 mm 0.41 in10.4 mm
11:50 AM 58.2°F14.6°C -45.6°F-43.1°C 0% 3.0 mph NE4.8 kmh NE 7.0 mph11.3 kmh 30.13 in1020.3 mb 0.01 in0.3 mm 0.00 in0.0 mm 0.41 in10.4 mm
11:55 AM 58.2°F14.6°C -45.6°F-43.1°C 0% 3.0 mph NE4.8 kmh NE 7.0 mph11.3 kmh 30.13 in1020.3 mb 0.01 in0.3 mm 0.00 in0.0 mm 0.41 in10.4 mm
12:00 PM 58.2°F14.6°C -45.6°F-43.1°C 0% 3.0 mph NE4.8 kmh NE 7.0 mph11.3 kmh 30.13 in1020.3 mb 0.01 in0.3 mm 0.00 in0.0 mm 0.41 in10.4 mm
12:05 PM 58.3°F14.6°C -45.6°F-43.1°C 0% 3.0 mph NE4.8 kmh NE 7.0 mph11.3 kmh 30.13 in1020.3 mb 0.00 in0.0 mm 0.00 in0.0 mm 0.41 in10.4 mm
12:10 PM 58.4°F14.7°C -45.6°F-43.1°C 0% 3.0 mph NE4.8 kmh NE 7.0 mph11.3 kmh 30.13 in1020.3 mb 0.00 in0.0 mm 0.00 in0.0 mm 0.41 in10.4 mm
12:15 PM 58.5°F14.7°C -45.6°F-43.1°C 0% 3.0 mph NE4.8 kmh NE 7.0 mph11.3 kmh 30.14 in1020.7 mb 0.00 in0.0 mm 0.00 in0.0 mm 0.41 in10.4 mm
12:20 PM 58.7°F14.8°C -45.6°F-43.1°C 0% 3.0 mph NE4.8 kmh NE 6.0 mph9.7 kmh 30.14 in1020.7 mb 0.00 in0.0 mm 0.00 in0.0 mm 0.41 in10.4 mm
12:25 PM 58.8°F14.9°C -45.6°F-43.1°C 0% 3.0 mph NNE4.8 kmh NNE 7.0 mph11.3 kmh 30.14 in1020.7 mb 0.00 in0.0 mm 0.00 in0.0 mm 0.41 in10.4 mm
12:30 PM 59.1°F15.1°C -45.6°F-43.1°C 0% 2.0 mph NE3.2 kmh NE 7.0 mph11.3 kmh 30.14 in1020.7 mb 0.00 in0.0 mm 0.00 in0.0 mm 0.41 in10.4 mm
12:35 PM 59.3°F15.2°C -45.6°F-43.1°C 0% 2.0 mph NE3.2 kmh NE 5.0 mph8.0 kmh 30.14 in1020.7 mb 0.00 in0.0 mm 0.00 in0.0 mm 0.41 in10.4 mm
12:40 PM 59.6°F15.3°C -45.6°F-43.1°C 0% 2.0 mph NE3.2 kmh NE 6.0 mph9.7 kmh 30.13 in1020.3 mb 0.00 in0.0 mm 0.00 in0.0 mm 0.41 in10.4 mm
12:45 PM 59.7°F15.4°C -45.6°F-43.1°C 0% 3.0 mph N4.8 kmh N 7.0 mph11.3 kmh 30.14 in1020.7 mb 0.00 in0.0 mm 0.00 in0.0 mm 0.41 in10.4 mm
12:50 PM 59.9°F15.5°C -45.6°F-43.1°C 0% 3.0 mph N4.8 kmh N 10.0 mph16.1 kmh 30.13 in1020.3 mb 0.00 in0.0 mm 0.00 in0.0 mm 0.41 in10.4 mm
12:55 PM 60.1°F15.6°C -45.6°F-43.1°C 0% 3.0 mph N4.8 kmh N 10.0 mph16.1 kmh 30.14 in1020.7 mb 0.00 in0.0 mm 0.00 in0.0 mm 0.41 in10.4 mm
01:00 PM 60.3°F15.7°C -45.6°F-43.1°C 0% 3.0 mph N4.8 kmh N 8.0 mph12.9 kmh 30.13 in1020.3 mb 0.00 in0.0 mm 0.00 in0.0 mm 0.41 in10.4 mm
01:05 PM 60.4°F15.8°C -45.6°F-43.1°C 0% 4.0 mph NNE6.4 kmh NNE 8.0 mph12.9 kmh 30.13 in1020.3 mb 0.00 in0.0 mm 0.00 in0.0 mm 0.41 in10.4 mm
01:10 PM 60.5°F15.8°C -45.6°F-43.1°C 0% 4.0 mph NNE6.4 kmh NNE 8.0 mph12.9 kmh 30.13 in1020.3 mb 0.00 in0.0 mm 0.00 in0.0 mm 0.41 in10.4 mm
01:15 PM 60.7°F15.9°C -45.6°F-43.1°C 0% 3.0 mph N4.8 kmh N 7.0 mph11.3 kmh 30.13 in1020.3 mb 0.00 in0.0 mm 0.00 in0.0 mm 0.41 in10.4 mm
01:20 PM 60.7°F15.9°C -45.6°F-43.1°C 0% 3.0 mph NNE4.8 kmh NNE 7.0 mph11.3 kmh 30.12 in1020.0 mb 0.00 in0.0 mm 0.00 in0.0 mm 0.41 in10.4 mm
01:25 PM 60.7°F15.9°C -45.6°F-43.1°C 0% 3.0 mph NE4.8 kmh NE 8.0 mph12.9 kmh 30.12 in1020.0 mb 0.00 in0.0 mm 0.00 in0.0 mm 0.41 in10.4 mm
01:30 PM 61.0°F16.1°C -45.6°F-43.1°C 0% 3.0 mph NNE4.8 kmh NNE 8.0 mph12.9 kmh 30.12 in1020.0 mb 0.00 in0.0 mm 0.00 in0.0 mm 0.41 in10.4 mm
01:35 PM 61.1°F16.2°C -45.6°F-43.1°C 0% 2.0 mph NE3.2 kmh NE 6.0 mph9.7 kmh 30.12 in1020.0 mb 0.00 in0.0 mm 0.00 in0.0 mm 0.41 in10.4 mm
01:40 PM 61.3°F16.3°C -45.6°F-43.1°C 0% 2.0 mph NE3.2 kmh NE 6.0 mph9.7 kmh 30.12 in1020.0 mb 0.00 in0.0 mm 0.00 in0.0 mm 0.41 in10.4 mm
01:45 PM 61.5°F16.4°C -45.6°F-43.1°C 0% 3.0 mph NNE4.8 kmh NNE 5.0 mph8.0 kmh 30.12 in1020.0 mb 0.00 in0.0 mm 0.00 in0.0 mm 0.41 in10.4 mm
01:50 PM 61.6°F16.4°C -45.6°F-43.1°C 0% 3.0 mph NNE4.8 kmh NNE 5.0 mph8.0 kmh 30.12 in1020.0 mb 0.00 in0.0 mm 0.00 in0.0 mm 0.41 in10.4 mm
01:55 PM 61.8°F16.6°C -45.6°F-43.1°C 0% 3.0 mph NNE4.8 kmh NNE 6.0 mph9.7 kmh 30.12 in1020.0 mb 0.00 in0.0 mm 0.00 in0.0 mm 0.41 in10.4 mm
02:00 PM 62.0°F16.7°C -45.6°F-43.1°C 0% 3.0 mph NNE4.8 kmh NNE 6.0 mph9.7 kmh 30.12 in1020.0 mb 0.00 in0.0 mm 0.00 in0.0 mm 0.41 in10.4 mm
02:05 PM 62.2°F16.8°C -45.6°F-43.1°C 0% 3.0 mph N4.8 kmh N 5.0 mph8.0 kmh 30.12 in1020.0 mb 0.00 in0.0 mm 0.00 in0.0 mm 0.41 in10.4 mm
02:10 PM 62.3°F16.8°C -45.6°F-43.1°C 0% 3.0 mph NNE4.8 kmh NNE 5.0 mph8.0 kmh 30.12 in1020.0 mb 0.00 in0.0 mm 0.00 in0.0 mm 0.41 in10.4 mm
02:15 PM 62.6°F17.0°C -45.6°F-43.1°C 0% 3.0 mph NNE4.8 kmh NNE 5.0 mph8.0 kmh 30.11 in1019.6 mb 0.00 in0.0 mm 0.00 in0.0 mm 0.41 in10.4 mm
02:20 PM 62.8°F17.1°C -45.6°F-43.1°C 0% 2.0 mph N3.2 kmh N 6.0 mph9.7 kmh 30.11 in1019.6 mb 0.00 in0.0 mm 0.00 in0.0 mm 0.41 in10.4 mm
02:25 PM 63.0°F17.2°C -45.6°F-43.1°C 0% 2.0 mph N3.2 kmh N 6.0 mph9.7 kmh 30.11 in1019.6 mb 0.00 in0.0 mm 0.00 in0.0 mm 0.41 in10.4 mm
02:30 PM 63.2°F17.3°C -45.6°F-43.1°C 0% 2.0 mph NNE3.2 kmh NNE 4.0 mph6.4 kmh 30.11 in1019.6 mb 0.00 in0.0 mm 0.00 in0.0 mm 0.41 in10.4 mm
02:35 PM 63.6°F17.6°C -45.6°F-43.1°C 0% 2.0 mph NNE3.2 kmh NNE 4.0 mph6.4 kmh 30.11 in1019.6 mb 0.00 in0.0 mm 0.00 in0.0 mm 0.41 in10.4 mm
02:40 PM 63.9°F17.7°C -45.6°F-43.1°C 0% 3.0 mph NNE4.8 kmh NNE 7.0 mph11.3 kmh 30.10 in1019.3 mb 0.00 in0.0 mm 0.00 in0.0 mm 0.41 in10.4 mm
02:45 PM 64.0°F17.8°C -45.6°F-43.1°C 0% 3.0 mph NE4.8 kmh NE 7.0 mph11.3 kmh 30.10 in1019.3 mb 0.00 in0.0 mm 0.00 in0.0 mm 0.41 in10.4 mm
02:50 PM 64.1°F17.8°C -45.6°F-43.1°C 0% 3.0 mph NE4.8 kmh NE 7.0 mph11.3 kmh 30.10 in1019.3 mb 0.00 in0.0 mm 0.00 in0.0 mm 0.41 in10.4 mm
02:55 PM 64.2°F17.9°C -45.6°F-43.1°C 0% 3.0 mph NE4.8 kmh NE 7.0 mph11.3 kmh 30.09 in1019.0 mb 0.00 in0.0 mm 0.00 in0.0 mm 0.41 in10.4 mm
03:00 PM 64.3°F17.9°C -45.6°F-43.1°C 0% 2.0 mph NE3.2 kmh NE 5.0 mph8.0 kmh 30.09 in1019.0 mb 0.00 in0.0 mm 0.00 in0.0 mm 0.41 in10.4 mm
03:05 PM 64.3°F17.9°C -45.6°F-43.1°C 0% 2.0 mph NE3.2 kmh NE 6.0 mph9.7 kmh 30.10 in1019.3 mb 0.00 in0.0 mm 0.00 in0.0 mm 0.41 in10.4 mm
03:10 PM 64.5°F18.1°C -45.6°F-43.1°C 0% 2.0 mph NE3.2 kmh NE 6.0 mph9.7 kmh 30.09 in1019.0 mb 0.00 in0.0 mm 0.00 in0.0 mm 0.41 in10.4 mm
03:15 PM 64.4°F18.0°C -45.6°F-43.1°C 0% 3.0 mph NE4.8 kmh NE 6.0 mph9.7 kmh 30.09 in1019.0 mb 0.00 in0.0 mm 0.00 in0.0 mm 0.41 in10.4 mm
03:20 PM 64.3°F17.9°C -45.6°F-43.1°C 0% 3.0 mph NE4.8 kmh NE 6.0 mph9.7 kmh 30.09 in1019.0 mb 0.00 in0.0 mm 0.00 in0.0 mm 0.41 in10.4 mm
03:25 PM 64.3°F17.9°C -45.6°F-43.1°C 0% 2.0 mph NE3.2 kmh NE 5.0 mph8.0 kmh 30.09 in1019.0 mb 0.00 in0.0 mm 0.00 in0.0 mm 0.41 in10.4 mm
03:30 PM 64.3°F17.9°C -45.6°F-43.1°C 0% 2.0 mph NE3.2 kmh NE 7.0 mph11.3 kmh 30.09 in1019.0 mb 0.00 in0.0 mm 0.00 in0.0 mm 0.41 in10.4 mm
03:35 PM 64.2°F17.9°C -45.6°F-43.1°C 0% 2.0 mph NE3.2 kmh NE 7.0 mph11.3 kmh 30.08 in1018.6 mb 0.00 in0.0 mm 0.00 in0.0 mm 0.41 in10.4 mm
03:40 PM 64.2°F17.9°C -45.6°F-43.1°C 0% 2.0 mph NE3.2 kmh NE 5.0 mph8.0 kmh 30.08 in1018.6 mb 0.00 in0.0 mm 0.00 in0.0 mm 0.41 in10.4 mm
03:45 PM 64.7°F18.2°C -45.6°F-43.1°C 0% 2.0 mph NE3.2 kmh NE 5.0 mph8.0 kmh 30.07 in1018.3 mb 0.00 in0.0 mm 0.00 in0.0 mm 0.41 in10.4 mm
03:50 PM 65.3°F18.5°C -45.6°F-43.1°C 0% 2.0 mph NE3.2 kmh NE 5.0 mph8.0 kmh 30.07 in1018.3 mb 0.00 in0.0 mm 0.00 in0.0 mm 0.41 in10.4 mm
03:55 PM 65.7°F18.7°C -45.6°F-43.1°C 0% 2.0 mph NE3.2 kmh NE 5.0 mph8.0 kmh 30.08 in1018.6 mb 0.00 in0.0 mm 0.00 in0.0 mm 0.41 in10.4 mm
04:00 PM 65.9°F18.8°C -3.3°F-19.6°C 6% 2.0 mph NNE3.2 kmh NNE 6.0 mph9.7 kmh 30.07 in1018.3 mb 0.00 in0.0 mm 0.00 in0.0 mm 0.41 in10.4 mm
04:05 PM 66.1°F18.9°C 0.1°F-17.7°C 7% 3.0 mph NNE4.8 kmh NNE 6.0 mph9.7 kmh 30.07 in1018.3 mb 0.00 in0.0 mm 0.00 in0.0 mm 0.41 in10.4 mm
04:10 PM 66.3°F19.1°C 17.2°F-8.2°C 15% 3.0 mph NE4.8 kmh NE 9.0 mph14.5 kmh 30.07 in1018.3 mb 0.00 in0.0 mm 0.00 in0.0 mm 0.41 in10.4 mm
04:15 PM 66.3°F19.1°C 18.7°F-7.4°C 16% 3.0 mph NE4.8 kmh NE 9.0 mph14.5 kmh 30.07 in1018.3 mb 0.00 in0.0 mm 0.00 in0.0 mm 0.41 in10.4 mm
04:20 PM 66.3°F19.1°C 17.2°F-8.2°C 15% 3.0 mph NNE4.8 kmh NNE 6.0 mph9.7 kmh 30.07 in1018.3 mb 0.00 in0.0 mm 0.00 in0.0 mm 0.41 in10.4 mm
04:25 PM 66.1°F18.9°C 26.1°F-3.3°C 22% 3.0 mph NNE4.8 kmh NNE 8.0 mph12.9 kmh 30.07 in1018.3 mb 0.00 in0.0 mm 0.00 in0.0 mm 0.41 in10.4 mm
04:30 PM 65.9°F18.8°C 27.0°F-2.8°C 23% 4.0 mph NE6.4 kmh NE 11.0 mph17.7 kmh 30.07 in1018.3 mb 0.00 in0.0 mm 0.00 in0.0 mm 0.41 in10.4 mm
04:35 PM 65.6°F18.7°C 26.8°F-2.9°C 23% 4.0 mph NE6.4 kmh NE 11.0 mph17.7 kmh 30.07 in1018.3 mb 0.00 in0.0 mm 0.00 in0.0 mm 0.41 in10.4 mm
04:40 PM 65.4°F18.6°C 24.4°F-4.2°C 21% 4.0 mph NE6.4 kmh NE 9.0 mph14.5 kmh 30.07 in1018.3 mb 0.00 in0.0 mm 0.00 in0.0 mm 0.41 in10.4 mm
04:45 PM 65.1°F18.4°C 26.3°F-3.2°C 23% 3.0 mph NNE4.8 kmh NNE 9.0 mph14.5 kmh 30.07 in1018.3 mb 0.00 in0.0 mm 0.00 in0.0 mm 0.41 in10.4 mm
04:50 PM 64.9°F18.3°C 24.0°F-4.4°C 21% 3.0 mph NE4.8 kmh NE 7.0 mph11.3 kmh 30.07 in1018.3 mb 0.00 in0.0 mm 0.00 in0.0 mm 0.41 in10.4 mm
04:55 PM 64.8°F18.2°C 20.2°F-6.6°C 18% 2.0 mph NE3.2 kmh NE 5.0 mph8.0 kmh 30.07 in1018.3 mb 0.00 in0.0 mm 0.00 in0.0 mm 0.41 in10.4 mm
05:00 PM 64.7°F18.2°C 15.9°F-8.9°C 15% 2.0 mph NNE3.2 kmh NNE 5.0 mph8.0 kmh 30.07 in1018.3 mb 0.00 in0.0 mm 0.00 in0.0 mm 0.41 in10.4 mm
05:05 PM 64.6°F18.1°C 18.7°F-7.4°C 17% 2.0 mph NNE3.2 kmh NNE 6.0 mph9.7 kmh 30.07 in1018.3 mb 0.00 in0.0 mm 0.00 in0.0 mm 0.41 in10.4 mm
05:10 PM 64.5°F18.1°C 15.8°F-9.0°C 15% 3.0 mph NNE4.8 kmh NNE 6.0 mph9.7 kmh 30.07 in1018.3 mb 0.00 in0.0 mm 0.00 in0.0 mm 0.41 in10.4 mm
05:15 PM 64.6°F18.1°C 1.8°F-16.8°C 8% 2.0 mph NNE3.2 kmh NNE 5.0 mph8.0 kmh 30.07 in1018.3 mb 0.00 in0.0 mm 0.00 in0.0 mm 0.41 in10.4 mm
05:20 PM 64.6°F18.1°C -8.0°F-22.2°C 5% 2.0 mph NNE3.2 kmh NNE 5.0 mph8.0 kmh 30.07 in1018.3 mb 0.00 in0.0 mm 0.00 in0.0 mm 0.41 in10.4 mm
05:25 PM 64.6°F18.1°C -8.0°F-22.2°C 5% 2.0 mph NNE3.2 kmh NNE 5.0 mph8.0 kmh 30.06 in1017.9 mb 0.00 in0.0 mm 0.00 in0.0 mm 0.41 in10.4 mm
05:30 PM 64.6°F18.1°C -8.0°F-22.2°C 5% 2.0 mph NE3.2 kmh NE 5.0 mph8.0 kmh 30.06 in1017.9 mb 0.00 in0.0 mm 0.00 in0.0 mm 0.41 in10.4 mm
05:35 PM 64.6°F18.1°C 8.8°F-12.9°C 11% 2.0 mph NE3.2 kmh NE 6.0 mph9.7 kmh 30.06 in1017.9 mb 0.00 in0.0 mm 0.00 in0.0 mm 0.41 in10.4 mm
05:40 PM 64.6°F18.1°C 6.7°F-14.1°C 10% 2.0 mph NE3.2 kmh NE 6.0 mph9.7 kmh 30.07 in1018.3 mb 0.00 in0.0 mm 0.00 in0.0 mm 0.41 in10.4 mm
05:45 PM 64.6°F18.1°C 6.7°F-14.1°C 10% 2.0 mph NE3.2 kmh NE 4.0 mph6.4 kmh 30.07 in1018.3 mb 0.00 in0.0 mm 0.00 in0.0 mm 0.41 in10.4 mm
05:50 PM 64.5°F18.1°C 4.3°F-15.4°C 9% 1.0 mph NE1.6 kmh NE 4.0 mph6.4 kmh 30.07 in1018.3 mb 0.00 in0.0 mm 0.00 in0.0 mm 0.41 in10.4 mm
05:55 PM 64.5°F18.1°C -4.3°F-20.2°C 6% 2.0 mph NNE3.2 kmh NNE 4.0 mph6.4 kmh 30.07 in1018.3 mb 0.00 in0.0 mm 0.00 in0.0 mm 0.41 in10.4 mm
06:00 PM 64.5°F18.1°C -12.6°F-24.8°C 4% 1.0 mph NNE1.6 kmh NNE 3.0 mph4.8 kmh 30.07 in1018.3 mb 0.00 in0.0 mm 0.00 in0.0 mm 0.41 in10.4 mm
06:05 PM 64.4°F18.0°C -18.4°F-28.0°C 3% 1.0 mph NNE1.6 kmh NNE 3.0 mph4.8 kmh 30.07 in1018.3 mb 0.00 in0.0 mm 0.00 in0.0 mm 0.41 in10.4 mm
06:10 PM 64.4°F18.0°C -12.7°F-24.8°C 4% 2.0 mph NNE3.2 kmh NNE 4.0 mph6.4 kmh 30.07 in1018.3 mb 0.00 in0.0 mm 0.00 in0.0 mm 0.41 in10.4 mm
06:15 PM 64.4°F18.0°C -18.4°F-28.0°C 3% 2.0 mph NNE3.2 kmh NNE 5.0 mph8.0 kmh 30.07 in1018.3 mb 0.00 in0.0 mm 0.00 in0.0 mm 0.41 in10.4 mm
06:20 PM 64.4°F18.0°C -12.7°F-24.8°C 4% 2.0 mph NNE3.2 kmh NNE 5.0 mph8.0 kmh 30.07 in1018.3 mb 0.00 in0.0 mm 0.00 in0.0 mm 0.41 in10.4 mm
06:25 PM 64.3°F17.9°C -18.4°F-28.0°C 3% 2.0 mph NNE3.2 kmh NNE 5.0 mph8.0 kmh 30.07 in1018.3 mb 0.00 in0.0 mm 0.00 in0.0 mm 0.41 in10.4 mm
06:30 PM 64.2°F17.9°C -12.8°F-24.9°C 4% 2.0 mph N3.2 kmh N 5.0 mph8.0 kmh 30.07 in1018.3 mb 0.00 in0.0 mm 0.00 in0.0 mm 0.41 in10.4 mm
06:35 PM 64.2°F17.9°C -26.2°F-32.3°C 2% 2.0 mph N3.2 kmh N 5.0 mph8.0 kmh 30.07 in1018.3 mb 0.00 in0.0 mm 0.00 in0.0 mm 0.41 in10.4 mm
06:40 PM 64.1°F17.8°C -38.8°F-39.3°C 1% 2.0 mph N3.2 kmh N 4.0 mph6.4 kmh 30.07 in1018.3 mb 0.00 in0.0 mm 0.00 in0.0 mm 0.41 in10.4 mm
06:45 PM 64.1°F17.8°C -38.8°F-39.3°C 0% 2.0 mph NNE3.2 kmh NNE 4.0 mph6.4 kmh 30.07 in1018.3 mb 0.00 in0.0 mm 0.00 in0.0 mm 0.41 in10.4 mm
06:50 PM 64.0°F17.8°C -38.8°F-39.3°C 0% 1.0 mph NNE1.6 kmh NNE 4.0 mph6.4 kmh 30.07 in1018.3 mb 0.00 in0.0 mm 0.00 in0.0 mm 0.41 in10.4 mm
06:55 PM 64.0°F17.8°C -38.8°F-39.3°C 0% 1.0 mph NE1.6 kmh NE 4.0 mph6.4 kmh 30.07 in1018.3 mb 0.00 in0.0 mm 0.00 in0.0 mm 0.41 in10.4 mm
07:00 PM 63.9°F17.7°C -38.8°F-39.3°C 0% 2.0 mph NE3.2 kmh NE 4.0 mph6.4 kmh 30.07 in1018.3 mb 0.00 in0.0 mm 0.00 in0.0 mm 0.41 in10.4 mm
07:05 PM 63.8°F17.7°C -38.8°F-39.3°C 0% 2.0 mph NNE3.2 kmh NNE 4.0 mph6.4 kmh 30.07 in1018.3 mb 0.00 in0.0 mm 0.00 in0.0 mm 0.41 in10.4 mm
07:10 PM 63.7°F17.6°C -38.8°F-39.3°C 0% 2.0 mph N3.2 kmh N 4.0 mph6.4 kmh 30.08 in1018.6 mb 0.00 in0.0 mm 0.00 in0.0 mm 0.41 in10.4 mm
07:15 PM 63.7°F17.6°C -38.8°F-39.3°C 0% 2.0 mph N3.2 kmh N 4.0 mph6.4 kmh 30.08 in1018.6 mb 0.00 in0.0 mm 0.00 in0.0 mm 0.41 in10.4 mm
07:20 PM 63.6°F17.6°C -38.8°F-39.3°C 0% 2.0 mph N3.2 kmh N 5.0 mph8.0 kmh 30.08 in1018.6 mb 0.00 in0.0 mm 0.00 in0.0 mm 0.41 in10.4 mm
07:25 PM 63.5°F17.5°C -38.8°F-39.3°C 0% 2.0 mph N3.2 kmh N 6.0 mph9.7 kmh 30.07 in1018.3 mb 0.00 in0.0 mm 0.00 in0.0 mm 0.41 in10.4 mm
07:30 PM 63.4°F17.4°C -38.8°F-39.3°C 0% 2.0 mph N3.2 kmh N 6.0 mph9.7 kmh 30.08 in1018.6 mb 0.00 in0.0 mm 0.00 in0.0 mm 0.41 in10.4 mm
07:35 PM 63.3°F17.4°C -38.8°F-39.3°C 0% 2.0 mph NNW3.2 kmh NNW 6.0 mph9.7 kmh 30.08 in1018.6 mb 0.00 in0.0 mm 0.00 in0.0 mm 0.41 in10.4 mm
07:40 PM 63.2°F17.3°C -38.8°F-39.3°C 0% 2.0 mph NNW3.2 kmh NNW 6.0 mph9.7 kmh 30.08 in1018.6 mb 0.00 in0.0 mm 0.00 in0.0 mm 0.41 in10.4 mm
07:45 PM 63.2°F17.3°C -38.8°F-39.3°C 0% 2.0 mph NNW3.2 kmh NNW 5.0 mph8.0 kmh 30.08 in1018.6 mb 0.00 in0.0 mm 0.00 in0.0 mm 0.41 in10.4 mm
07:50 PM 63.1°F17.3°C -38.8°F-39.3°C 0% 2.0 mph N3.2 kmh N 5.0 mph8.0 kmh 30.07 in1018.3 mb 0.00 in0.0 mm 0.00 in0.0 mm 0.41 in10.4 mm
07:55 PM 63.0°F17.2°C -38.8°F-39.3°C 0% 2.0 mph N3.2 kmh N 5.0 mph8.0 kmh 30.07 in1018.3 mb 0.00 in0.0 mm 0.00 in0.0 mm 0.41 in10.4 mm
08:00 PM 63.0°F17.2°C -38.8°F-39.3°C 0% 2.0 mph N3.2 kmh N 5.0 mph8.0 kmh 30.08 in1018.6 mb 0.00 in0.0 mm 0.00 in0.0 mm 0.41 in10.4 mm
08:05 PM 62.9°F17.2°C -38.8°F-39.3°C 0% 2.0 mph N3.2 kmh N 4.0 mph6.4 kmh 30.08 in1018.6 mb 0.00 in0.0 mm 0.00 in0.0 mm 0.41 in10.4 mm
08:10 PM 63.0°F17.2°C -38.8°F-39.3°C 0% 2.0 mph N3.2 kmh N 6.0 mph9.7 kmh 30.08 in1018.6 mb 0.00 in0.0 mm 0.00 in0.0 mm 0.41 in10.4 mm
08:15 PM 63.0°F17.2°C -38.8°F-39.3°C 0% 3.0 mph N4.8 kmh N 8.0 mph12.9 kmh 30.08 in1018.6 mb 0.00 in0.0 mm 0.00 in0.0 mm 0.41 in10.4 mm
08:20 PM 63.0°F17.2°C -38.8°F-39.3°C 0% 4.0 mph N6.4 kmh N 8.0 mph12.9 kmh 30.08 in1018.6 mb 0.00 in0.0 mm 0.00 in0.0 mm 0.41 in10.4 mm
08:25 PM 63.0°F17.2°C -38.8°F-39.3°C 0% 3.0 mph N4.8 kmh N 7.0 mph11.3 kmh 30.09 in1019.0 mb 0.00 in0.0 mm 0.00 in0.0 mm 0.41 in10.4 mm
08:30 PM 63.0°F17.2°C -38.8°F-39.3°C 0% 4.0 mph N6.4 kmh N 10.0 mph16.1 kmh 30.09 in1019.0 mb 0.00 in0.0 mm 0.00 in0.0 mm 0.41 in10.4 mm
08:35 PM 62.9°F17.2°C -38.8°F-39.3°C 0% 4.0 mph N6.4 kmh N 10.0 mph16.1 kmh 30.09 in1019.0 mb 0.00 in0.0 mm 0.00 in0.0 mm 0.41 in10.4 mm
08:40 PM 62.9°F17.2°C -38.8°F-39.3°C 0% 4.0 mph N6.4 kmh N 8.0 mph12.9 kmh 30.09 in1019.0 mb 0.00 in0.0 mm 0.00 in0.0 mm 0.41 in10.4 mm
08:45 PM 62.8°F17.1°C -38.8°F-39.3°C 0% 4.0 mph N6.4 kmh N 7.0 mph11.3 kmh 30.09 in1019.0 mb 0.00 in0.0 mm 0.00 in0.0 mm 0.41 in10.4 mm
08:50 PM 62.7°F17.1°C -38.8°F-39.3°C 0% 3.0 mph N4.8 kmh N 8.0 mph12.9 kmh 30.09 in1019.0 mb 0.00 in0.0 mm 0.00 in0.0 mm 0.41 in10.4 mm
08:55 PM 62.7°F17.1°C -38.8°F-39.3°C 0% 4.0 mph N6.4 kmh N 9.0 mph14.5 kmh 30.09 in1019.0 mb 0.00 in0.0 mm 0.00 in0.0 mm 0.41 in10.4 mm
09:00 PM 62.6°F17.0°C -38.8°F-39.3°C 0% 4.0 mph N6.4 kmh N 9.0 mph14.5 kmh 30.09 in1019.0 mb 0.00 in0.0 mm 0.00 in0.0 mm 0.41 in10.4 mm
09:05 PM 62.6°F17.0°C -38.8°F-39.3°C 0% 4.0 mph N6.4 kmh N 10.0 mph16.1 kmh 30.08 in1018.6 mb 0.00 in0.0 mm 0.00 in0.0 mm 0.41 in10.4 mm
09:10 PM 62.5°F16.9°C -38.8°F-39.3°C 0% 4.0 mph N6.4 kmh N 10.0 mph16.1 kmh 30.08 in1018.6 mb 0.00 in0.0 mm 0.00 in0.0 mm 0.41 in10.4 mm
09:15 PM 62.4°F16.9°C -38.8°F-39.3°C 0% 4.0 mph N6.4 kmh N 10.0 mph16.1 kmh 30.08 in1018.6 mb 0.00 in0.0 mm 0.00 in0.0 mm 0.41 in10.4 mm
09:20 PM 62.2°F16.8°C -38.8°F-39.3°C 0% 4.0 mph NNE6.4 kmh NNE 10.0 mph16.1 kmh 30.09 in1019.0 mb 0.00 in0.0 mm 0.00 in0.0 mm 0.41 in10.4 mm
09:25 PM 62.0°F16.7°C -38.8°F-39.3°C 0% 5.0 mph NNE8.0 kmh NNE 14.0 mph22.5 kmh 30.09 in1019.0 mb 0.00 in0.0 mm 0.00 in0.0 mm 0.41 in10.4 mm
09:30 PM 61.9°F16.6°C -38.8°F-39.3°C 0% 6.0 mph NNE9.7 kmh NNE 14.0 mph22.5 kmh 30.09 in1019.0 mb 0.00 in0.0 mm 0.00 in0.0 mm 0.41 in10.4 mm
09:35 PM 61.8°F16.6°C -38.8°F-39.3°C 0% 5.0 mph N8.0 kmh N 11.0 mph17.7 kmh 30.10 in1019.3 mb 0.00 in0.0 mm 0.00 in0.0 mm 0.41 in10.4 mm
09:40 PM 61.7°F16.5°C -38.8°F-39.3°C 0% 5.0 mph N8.0 kmh N 11.0 mph17.7 kmh 30.11 in1019.6 mb 0.00 in0.0 mm 0.00 in0.0 mm 0.41 in10.4 mm
09:45 PM 61.7°F16.5°C -38.8°F-39.3°C 0% 5.0 mph N8.0 kmh N 11.0 mph17.7 kmh 30.10 in1019.3 mb 0.00 in0.0 mm 0.00 in0.0 mm 0.41 in10.4 mm
09:50 PM 61.7°F16.5°C -38.8°F-39.3°C 0% 4.0 mph N6.4 kmh N 10.0 mph16.1 kmh 30.11 in1019.6 mb 0.00 in0.0 mm 0.00 in0.0 mm 0.41 in10.4 mm
09:55 PM 61.7°F16.5°C -38.8°F-39.3°C 0% 4.0 mph N6.4 kmh N 10.0 mph16.1 kmh 30.11 in1019.6 mb 0.00 in0.0 mm 0.00 in0.0 mm 0.41 in10.4 mm
10:00 PM 61.6°F16.4°C -38.8°F-39.3°C 0% 4.0 mph N6.4 kmh N 10.0 mph16.1 kmh 30.11 in1019.6 mb 0.00 in0.0 mm 0.00 in0.0 mm 0.41 in10.4 mm
10:05 PM 61.4°F16.3°C -38.8°F-39.3°C 0% 5.0 mph N8.0 kmh N 14.0 mph22.5 kmh 30.11 in1019.6 mb 0.00 in0.0 mm 0.00 in0.0 mm 0.41 in10.4 mm
10:10 PM 61.2°F16.2°C -38.8°F-39.3°C 0% 7.0 mph N11.3 kmh N 15.0 mph24.1 kmh 30.11 in1019.6 mb 0.00 in0.0 mm 0.00 in0.0 mm 0.41 in10.4 mm
10:15 PM 61.0°F16.1°C -38.8°F-39.3°C 0% 7.0 mph N11.3 kmh N 15.0 mph24.1 kmh 30.11 in1019.6 mb 0.00 in0.0 mm 0.00 in0.0 mm 0.41 in10.4 mm
10:20 PM 60.9°F16.1°C -38.8°F-39.3°C 0% 5.0 mph N8.0 kmh N 10.0 mph16.1 kmh 30.12 in1020.0 mb 0.00 in0.0 mm 0.00 in0.0 mm 0.41 in10.4 mm
10:25 PM 60.8°F16.0°C -38.8°F-39.3°C 0% 5.0 mph N8.0 kmh N 11.0 mph17.7 kmh 30.11 in1019.6 mb 0.00 in0.0 mm 0.00 in0.0 mm 0.41 in10.4 mm
10:30 PM 60.7°F15.9°C -38.8°F-39.3°C 0% 6.0 mph N9.7 kmh N 11.0 mph17.7 kmh 30.12 in1020.0 mb 0.00 in0.0 mm 0.00 in0.0 mm 0.41 in10.4 mm
10:35 PM 60.6°F15.9°C -38.8°F-39.3°C 0% 5.0 mph N8.0 kmh N 15.0 mph24.1 kmh 30.12 in1020.0 mb 0.00 in0.0 mm 0.00 in0.0 mm 0.41 in10.4 mm
10:40 PM 60.6°F15.9°C -38.8°F-39.3°C 0% 5.0 mph N8.0 kmh N 15.0 mph24.1 kmh 30.12 in1020.0 mb 0.00 in0.0 mm 0.00 in0.0 mm 0.41 in10.4 mm
10:45 PM 60.5°F15.8°C -38.8°F-39.3°C 0% 5.0 mph N8.0 kmh N 13.0 mph20.9 kmh 30.12 in1020.0 mb 0.00 in0.0 mm 0.00 in0.0 mm 0.41 in10.4 mm
10:50 PM 60.4°F15.8°C -38.8°F-39.3°C 0% 6.0 mph N9.7 kmh N 13.0 mph20.9 kmh 30.13 in1020.3 mb 0.00 in0.0 mm 0.00 in0.0 mm 0.41 in10.4 mm
10:55 PM 60.3°F15.7°C -38.8°F-39.3°C 0% 6.0 mph N9.7 kmh N 12.0 mph19.3 kmh 30.13 in1020.3 mb 0.00 in0.0 mm 0.00 in0.0 mm 0.41 in10.4 mm
11:00 PM 60.2°F15.7°C -38.8°F-39.3°C 0% 5.0 mph N8.0 kmh N 11.0 mph17.7 kmh 30.13 in1020.3 mb 0.00 in0.0 mm 0.00 in0.0 mm 0.41 in10.4 mm
11:05 PM 60.1°F15.6°C -38.8°F-39.3°C 0% 4.0 mph N6.4 kmh N 10.0 mph16.1 kmh 30.13 in1020.3 mb 0.00 in0.0 mm 0.00 in0.0 mm 0.41 in10.4 mm
11:10 PM 60.1°F15.6°C -38.8°F-39.3°C 0% 5.0 mph N8.0 kmh N 11.0 mph17.7 kmh 30.13 in1020.3 mb 0.00 in0.0 mm 0.00 in0.0 mm 0.41 in10.4 mm
11:15 PM 59.9°F15.5°C -38.8°F-39.3°C 0% 5.0 mph NNE8.0 kmh NNE 11.0 mph17.7 kmh 30.12 in1020.0 mb 0.00 in0.0 mm 0.00 in0.0 mm 0.41 in10.4 mm
11:20 PM 59.8°F15.4°C -38.8°F-39.3°C 0% 5.0 mph NNE8.0 kmh NNE 13.0 mph20.9 kmh 30.12 in1020.0 mb 0.00 in0.0 mm 0.00 in0.0 mm 0.41 in10.4 mm
11:25 PM 59.6°F15.3°C -38.8°F-39.3°C 0% 5.0 mph N8.0 kmh N 13.0 mph20.9 kmh 30.12 in1020.0 mb 0.00 in0.0 mm 0.00 in0.0 mm 0.41 in10.4 mm
11:30 PM 59.4°F15.2°C -38.8°F-39.3°C 0% 5.0 mph N8.0 kmh N 11.0 mph17.7 kmh 30.11 in1019.6 mb 0.00 in0.0 mm 0.00 in0.0 mm 0.41 in10.4 mm
11:35 PM 59.3°F15.2°C -38.8°F-39.3°C 0% 4.0 mph N6.4 kmh N 11.0 mph17.7 kmh 30.11 in1019.6 mb 0.00 in0.0 mm 0.00 in0.0 mm 0.41 in10.4 mm
11:40 PM 59.1°F15.1°C -38.8°F-39.3°C 0% 5.0 mph N8.0 kmh N 14.0 mph22.5 kmh 30.11 in1019.6 mb 0.00 in0.0 mm 0.00 in0.0 mm 0.41 in10.4 mm
11:45 PM 58.9°F14.9°C -38.8°F-39.3°C 0% 6.0 mph N9.7 kmh N 15.0 mph24.1 kmh 30.11 in1019.6 mb 0.00 in0.0 mm 0.00 in0.0 mm 0.41 in10.4 mm
11:50 PM 58.8°F14.9°C -38.8°F-39.3°C 0% 6.0 mph N9.7 kmh N 15.0 mph24.1 kmh 30.11 in1019.6 mb 0.00 in0.0 mm 0.00 in0.0 mm 0.41 in10.4 mm
11:55 PM 58.7°F14.8°C -38.8°F-39.3°C 0% 5.0 mph N8.0 kmh N 12.0 mph19.3 kmh 30.11 in1019.6 mb 0.00 in0.0 mm 0.00 in0.0 mm 0.41 in10.4 mm